Time;durP1;ratioP1;P1;durP2;ratioP2;P2;SDS_P1;SDS_P2;PMS_P1;PMS_P2;Temp;Humidity;BMP_temperature;BMP_pressure;BME280_temperature;BME280_humidity;BME280_pressure;Samples;Min_cycle;Max_cycle;Signal;HPM_P1;HPM_P2
2021/06/07 00:00:19;;;;;;;80.43;34.60;;;;;;;13.64;nan;97034.81;3500259;40;20773;-69
2021/06/07 00:02:47;;;;;;;74.47;32.87;;;;;;;13.70;nan;97030.91;3506574;40;21269;-71
2021/06/07 00:05:15;;;;;;;69.70;32.20;;;;;;;13.53;nan;97030.38;3496980;40;20734;-70
2021/06/07 00:07:44;;;;;;;77.23;35.17;;;;;;;13.60;nan;97026.34;3499235;40;20481;-69
2021/06/07 00:10:14;;;;;;;78.37;33.97;;;;;;;13.55;nan;97030.28;3506422;40;20838;-70
2021/06/07 00:12:41;;;;;;;80.60;34.10;;;;;;;13.44;nan;97029.25;3506675;40;20839;-70
2021/06/07 00:15:13;;;;;;;73.97;30.83;;;;;;;13.48;nan;97034.28;3495864;40;20562;-70
2021/06/07 00:17:41;;;;;;;80.33;32.83;;;;;;;13.56;nan;97031.94;3505947;40;20956;-69
2021/06/07 00:20:10;;;;;;;68.30;31.13;;;;;;;13.58;nan;97033.53;3506076;40;20481;-69
2021/06/07 00:22:38;;;;;;;77.10;33.97;;;;;;;13.57;nan;97029.19;3506944;40;20466;-70
2021/06/07 00:25:09;;;;;;;74.73;33.37;;;;;;;13.56;nan;97032.75;3505868;40;20847;-70
2021/06/07 00:27:36;;;;;;;78.53;32.97;;;;;;;13.59;nan;97029.09;3506548;40;20529;-70
2021/06/07 00:30:06;;;;;;;78.00;32.57;;;;;;;13.65;nan;97021.56;3506403;40;20870;-70
2021/06/07 00:32:33;;;;;;;84.17;34.67;;;;;;;13.62;nan;97029.72;3506395;40;20933;-70
2021/06/07 00:35:01;;;;;;;81.10;33.43;;;;;;;13.59;nan;97027.28;3506189;40;20474;-70
2021/06/07 00:37:28;;;;;;;79.73;32.10;;;;;;;13.58;nan;97023.00;3506646;40;20989;-71
2021/06/07 00:39:56;;;;;;;77.27;32.10;;;;;;;13.55;nan;97025.00;3506021;40;20573;-70
2021/06/07 00:42:25;;;;;;;75.50;32.13;;;;;;;13.59;nan;97034.34;3506423;40;20446;-71
2021/06/07 00:44:52;;;;;;;76.73;31.80;;;;;;;13.47;nan;97027.38;3505807;40;20965;-70
2021/06/07 00:47:20;;;;;;;80.87;31.90;;;;;;;13.55;nan;97027.63;3505694;40;21426;-71
2021/06/07 00:49:47;;;;;;;78.20;32.10;;;;;;;13.56;nan;97027.50;3504976;40;20851;-70
2021/06/07 00:52:15;;;;;;;80.70;34.20;;;;;;;13.57;nan;97026.56;3505400;40;20984;-70
2021/06/07 00:54:42;;;;;;;94.93;33.20;;;;;;;13.49;nan;97010.50;3505879;40;20471;-71
2021/06/07 00:57:10;;;;;;;85.27;34.83;;;;;;;13.52;nan;97031.31;3497353;40;20803;-70
2021/06/07 00:59:38;;;;;;;85.60;35.50;;;;;;;13.48;nan;97024.59;3505900;40;20478;-70
2021/06/07 01:02:06;;;;;;;85.90;35.47;;;;;;;13.52;nan;97019.97;3506679;40;20438;-69
2021/06/07 01:04:34;;;;;;;90.10;35.77;;;;;;;13.59;nan;97023.81;3505436;40;20580;-70
2021/06/07 01:07:02;;;;;;;88.33;35.00;;;;;;;13.60;nan;97023.72;3497717;40;20486;-69
2021/06/07 01:09:29;;;;;;;96.50;35.70;;;;;;;13.61;nan;97022.75;3505710;40;20584;-70
2021/06/07 01:11:56;;;;;;;82.30;35.47;;;;;;;13.63;nan;97017.38;3493997;40;20923;-70
2021/06/07 01:14:24;;;;;;;81.83;35.30;;;;;;;13.52;nan;97022.59;3506059;40;20467;-71
2021/06/07 01:16:52;;;;;;;90.30;38.20;;;;;;;13.55;nan;97011.84;3507167;40;20905;-72
2021/06/07 01:19:22;;;;;;;95.23;38.87;;;;;;;13.57;nan;97010.78;3506387;40;20490;-71
2021/06/07 01:21:50;;;;;;;82.53;34.37;;;;;;;13.65;nan;97016.31;3506757;40;20451;-70
2021/06/07 01:24:19;;;;;;;83.33;35.93;;;;;;;13.63;nan;97007.69;3505902;40;21266;-70
2021/06/07 01:26:46;;;;;;;80.30;33.67;;;;;;;13.61;nan;97014.03;3505894;40;20558;-70
2021/06/07 01:29:14;;;;;;;91.47;35.67;;;;;;;13.68;nan;97010.00;3505641;40;20925;-70
2021/06/07 01:31:42;;;;;;;85.80;34.87;;;;;;;13.70;nan;97009.84;3491009;40;20916;-70
2021/06/07 01:34:09;;;;;;;85.33;33.77;;;;;;;13.62;nan;97013.91;3505507;40;20721;-70
2021/06/07 01:36:37;;;;;;;77.87;34.77;;;;;;;13.67;nan;96996.94;3507023;40;20470;-71
2021/06/07 01:39:05;;;;;;;86.90;36.33;;;;;;;13.42;nan;97001.38;3505716;40;20514;-70
2021/06/07 01:41:34;;;;;;;80.00;35.47;;;;;;;13.44;nan;96999.47;3505470;40;20971;-70
2021/06/07 01:44:01;;;;;;;78.33;35.33;;;;;;;13.47;nan;97001.91;3505189;40;20539;-71
2021/06/07 01:46:29;;;;;;;80.53;35.97;;;;;;;13.46;nan;96994.94;3505940;40;20475;-69
2021/06/07 01:48:56;;;;;;;90.37;37.70;;;;;;;13.41;nan;96999.72;3505161;40;20478;-71
2021/06/07 01:51:23;;;;;;;95.00;40.63;;;;;;;13.29;nan;96972.50;3505896;40;20862;-70
2021/06/07 01:53:51;;;;;;;95.83;36.70;;;;;;;13.48;nan;96984.31;3505870;40;20461;-70
2021/06/07 01:56:18;;;;;;;93.37;36.53;;;;;;;13.44;nan;96983.69;3506581;40;20847;-70
2021/06/07 01:58:47;;;;;;;102.80;37.70;;;;;;;13.53;nan;96980.38;3506153;40;20540;-70
2021/06/07 02:01:17;;;;;;;92.57;35.50;;;;;;;13.50;nan;96980.59;3506249;40;20463;-71
2021/06/07 02:03:46;;;;;;;85.97;36.90;;;;;;;13.48;nan;96979.88;3506980;40;20537;-70
2021/06/07 02:06:17;;;;;;;95.57;36.97;;;;;;;13.53;nan;96975.13;3506086;40;20858;-70
2021/06/07 02:08:45;;;;;;;99.20;37.20;;;;;;;13.56;nan;96976.69;3507318;40;20465;-70
2021/06/07 02:11:15;;;;;;;91.57;37.67;;;;;;;13.49;nan;96976.31;3508034;40;20909;-70
2021/06/07 02:13:45;;;;;;;93.10;34.57;;;;;;;13.40;nan;96979.63;3495274;40;20494;-71
2021/06/07 02:16:17;;;;;;;83.17;36.00;;;;;;;13.49;nan;96976.31;3506911;40;20969;-70
2021/06/07 02:18:45;;;;;;;92.93;37.00;;;;;;;13.52;nan;96978.69;3506421;40;20567;-69
2021/06/07 02:21:15;;;;;;;93.97;37.03;;;;;;;13.48;nan;96979.88;3500606;40;20593;-70
2021/06/07 02:23:43;;;;;;;90.93;37.80;;;;;;;13.31;nan;96985.53;3506752;40;20485;-70
2021/06/07 02:26:11;;;;;;;90.43;36.03;;;;;;;13.31;nan;96986.41;3507336;40;20772;-70
2021/06/07 02:28:39;;;;;;;93.87;36.77;;;;;;;13.37;nan;96990.38;3506594;40;20870;-70
2021/06/07 02:31:06;;;;;;;94.13;36.53;;;;;;;13.40;nan;96990.97;3506855;40;20463;-70
2021/06/07 02:33:35;;;;;;;87.70;36.90;;;;;;;13.45;nan;96985.38;3507306;40;20827;-70
2021/06/07 02:36:03;;;;;;;94.47;36.90;;;;;;;13.47;nan;96991.38;3505605;40;20451;-70
2021/06/07 02:38:31;;;;;;;106.43;38.17;;;;;;;13.48;nan;96987.78;3507194;40;20805;-70
2021/06/07 02:40:58;;;;;;;104.50;38.27;;;;;;;13.45;nan;96983.59;3508935;40;20473;-70
2021/06/07 02:43:26;;;;;;;103.17;38.00;;;;;;;13.31;nan;96986.41;3507038;40;20844;-69
2021/06/07 02:45:53;;;;;;;94.17;38.53;;;;;;;13.29;nan;96988.28;3506964;40;20490;-70
2021/06/07 02:48:21;;;;;;;103.00;38.77;;;;;;;13.34;nan;96993.22;3498298;40;20479;-70
2021/06/07 02:50:50;;;;;;;111.67;40.93;;;;;;;13.28;nan;96985.75;3506722;40;20565;-70
2021/06/07 02:53:18;;;;;;;120.70;42.93;;;;;;;13.31;nan;96985.53;3507574;40;20907;-70
2021/06/07 02:55:48;;;;;;;120.20;44.10;;;;;;;13.24;nan;96985.13;3508110;40;20438;-69
2021/06/07 02:58:16;;;;;;;102.00;36.10;;;;;;;13.25;nan;96982.41;3507039;40;20455;-70
2021/06/07 03:00:48;;;;;;;110.07;40.20;;;;;;;13.31;nan;96985.53;3508344;40;20452;-70
2021/06/07 03:03:15;;;;;;;118.13;42.93;;;;;;;13.33;nan;96989.75;3507418;40;20561;-69
2021/06/07 03:05:45;;;;;;;100.90;38.97;;;;;;;13.32;nan;96990.69;3506129;40;20468;-70
2021/06/07 03:08:15;;;;;;;100.03;40.20;;;;;;;13.23;nan;96980.81;3506312;40;20557;-70
2021/06/07 03:10:46;;;;;;;106.97;40.47;;;;;;;13.19;nan;96985.50;3507020;40;20977;-70
2021/06/07 03:13:14;;;;;;;105.07;39.57;;;;;;;13.10;nan;96982.69;3507041;40;20775;-70
2021/06/07 03:15:41;;;;;;;87.73;37.37;;;;;;;12.95;nan;96995.13;3505903;40;20451;-72
2021/06/07 03:18:09;;;;;;;100.57;36.07;;;;;;;13.11;nan;97000.97;3507806;40;20458;-71
2021/06/07 03:20:37;;;;;;;102.37;40.17;;;;;;;13.19;nan;96997.78;3507241;40;20797;-70
2021/06/07 03:23:07;;;;;;;98.70;38.80;;;;;;;13.32;nan;97003.03;3507821;40;20901;-71
2021/06/07 03:25:38;;;;;;;94.10;36.97;;;;;;;13.05;nan;96959.34;3506149;40;20847;-70
2021/06/07 03:28:06;;;;;;;93.40;35.63;;;;;;;13.24;nan;96996.50;3505998;40;20591;-71
2021/06/07 03:30:35;;;;;;;90.80;35.77;;;;;;;13.22;nan;96995.75;3507630;40;20488;-71
2021/06/07 03:33:02;;;;;;;97.17;39.47;;;;;;;13.21;nan;96996.72;3507073;40;20741;-72
2021/06/07 03:35:30;;;;;;;99.97;38.60;;;;;;;13.30;nan;96997.03;3506156;40;20508;-70
2021/06/07 03:37:58;;;;;;;94.20;38.07;;;;;;;13.30;nan;96994.41;3507156;40;20748;-71
2021/06/07 03:40:29;;;;;;;92.40;36.00;;;;;;;13.34;nan;97001.13;3504536;40;20470;-70
2021/06/07 03:42:59;;;;;;;102.17;37.23;;;;;;;13.12;nan;96997.38;3506176;40;20455;-71
2021/06/07 03:45:27;;;;;;;95.43;36.57;;;;;;;13.22;nan;97001.03;3496707;40;20481;-70
2021/06/07 03:47:54;;;;;;;84.00;34.37;;;;;;;13.29;nan;96997.94;3506484;40;20749;-70
2021/06/07 03:50:24;;;;;;;95.70;35.97;;;;;;;13.24;nan;96991.22;3506692;40;20539;-70
2021/06/07 03:52:52;;;;;;;85.93;34.20;;;;;;;13.07;nan;96983.72;3497901;40;20987;-71
2021/06/07 03:55:21;;;;;;;81.13;31.80;;;;;;;13.10;nan;96988.78;3496545;40;20462;-69
2021/06/07 03:57:48;;;;;;;77.70;31.60;;;;;;;13.23;nan;96986.94;3506192;40;20485;-69
2021/06/07 04:00:21;;;;;;;63.97;29.60;;;;;;;13.23;nan;96992.19;3505899;40;20471;-71
2021/06/07 04:02:49;;;;;;;61.97;28.77;;;;;;;13.18;nan;96989.06;3507264;40;20848;-70
2021/06/07 04:05:17;;;;;;;70.60;28.67;;;;;;;13.23;nan;96994.81;3506385;40;21115;-70
2021/06/07 04:07:44;;;;;;;71.10;26.60;;;;;;;13.33;nan;96983.63;3507353;40;20548;-70
2021/06/07 04:10:14;;;;;;;58.90;26.70;;;;;;;13.25;nan;96987.66;3507588;40;20792;-71
2021/06/07 04:12:42;;;;;;;48.90;25.10;;;;;;;13.29;nan;96998.81;3506877;40;20898;-72
2021/06/07 04:15:11;;;;;;;60.20;25.10;;;;;;;13.25;nan;96982.41;3505710;40;20805;-70
2021/06/07 04:17:40;;;;;;;56.87;23.67;;;;;;;13.24;nan;96993.03;3497156;40;20873;-71
2021/06/07 04:20:11;;;;;;;51.03;23.10;;;;;;;13.30;nan;96986.50;3505555;40;20477;-73
2021/06/07 04:22:40;;;;;;;49.67;23.20;;;;;;;13.32;nan;96988.06;3507206;40;20501;-71
2021/06/07 04:25:09;;;;;;;50.67;22.13;;;;;;;13.32;nan;96997.75;3497061;40;20463;-72
2021/06/07 04:27:38;;;;;;;50.33;23.30;;;;;;;13.32;nan;96995.97;3506544;40;20948;-70
2021/06/07 04:30:08;;;;;;;46.80;22.60;;;;;;;13.25;nan;96987.66;3507972;40;21176;-70
2021/06/07 04:32:36;;;;;;;49.30;22.60;;;;;;;13.35;nan;96995.75;3507289;40;20862;-70
2021/06/07 04:35:06;;;;;;;37.60;20.77;;;;;;;13.34;nan;96993.22;3499643;40;20530;-72
2021/06/07 04:37:39;;;;;;;44.17;22.50;;;;;;;13.33;nan;96995.03;3508123;40;20603;-72
2021/06/07 04:40:07;;;;;;;39.13;22.57;;;;;;;13.35;nan;96994.88;3507436;40;20925;-72
2021/06/07 04:42:35;;;;;;;50.70;22.63;;;;;;;13.36;nan;96989.53;3507347;40;20448;-70
2021/06/07 04:45:04;;;;;;;51.00;22.83;;;;;;;13.21;nan;96988.84;3507394;40;20469;-70
2021/06/07 04:47:31;;;;;;;41.27;20.90;;;;;;;13.31;nan;96991.66;3506523;40;20842;-71
2021/06/07 04:50:00;;;;;;;39.93;21.97;;;;;;;13.37;nan;96990.38;3507609;40;20456;-70
2021/06/07 04:52:29;;;;;;;39.80;20.63;;;;;;;13.30;nan;96989.16;3489722;40;20557;-71
2021/06/07 04:54:56;;;;;;;47.73;22.30;;;;;;;13.37;nan;96991.22;3507656;40;20509;-71
2021/06/07 04:57:24;;;;;;;42.93;21.67;;;;;;;13.44;nan;96988.94;3507733;40;20461;-71
2021/06/07 04:59:52;;;;;;;41.30;21.30;;;;;;;13.28;nan;96986.59;3506266;40;20583;-69
2021/06/07 05:02:20;;;;;;;43.60;22.20;;;;;;;13.30;nan;96989.97;3506379;40;20886;-70
2021/06/07 05:04:47;;;;;;;43.20;20.77;;;;;;;13.38;nan;96979.72;3506800;40;20486;-70
2021/06/07 05:07:15;;;;;;;46.03;21.73;;;;;;;13.35;nan;96987.84;3506977;40;20449;-71
2021/06/07 05:09:44;;;;;;;49.60;22.20;;;;;;;13.40;nan;96992.78;3507269;40;20906;-71
2021/06/07 05:12:12;;;;;;;38.10;20.97;;;;;;;13.48;nan;96981.69;3506938;40;20473;-70
2021/06/07 05:14:40;;;;;;;38.43;20.43;;;;;;;13.51;nan;96981.47;3507174;40;20478;-71
2021/06/07 05:17:07;;;;;;;40.70;20.57;;;;;;;13.43;nan;96979.41;3507210;40;20600;-69
2021/06/07 05:19:35;;;;;;;76.60;46.57;;;;;;;13.45;nan;96982.75;3506348;40;20923;-68
2021/06/07 05:22:03;;;;;;;43.20;20.87;;;;;;;13.43;nan;96979.41;3507827;40;20466;-70
2021/06/07 05:24:30;;;;;;;61.23;29.37;;;;;;;13.54;nan;96986.47;3507481;40;20520;-70
2021/06/07 05:26:59;;;;;;;42.80;22.37;;;;;;;13.54;nan;96984.69;3505757;40;20810;-70
2021/06/07 05:29:26;;;;;;;46.30;23.60;;;;;;;13.64;nan;96980.44;3505860;40;20556;-69
2021/06/07 05:31:54;;;;;;;48.00;24.97;;;;;;;13.77;nan;96979.50;3498476;40;20574;-69
2021/06/07 05:34:21;;;;;;;48.70;24.10;;;;;;;13.72;nan;96989.53;3505709;40;20540;-70
2021/06/07 05:36:48;;;;;;;49.63;24.07;;;;;;;13.71;nan;96985.22;3498371;40;20892;-71
2021/06/07 05:39:19;;;;;;;48.53;22.50;;;;;;;13.71;nan;96977.34;3507789;40;20591;-70
2021/06/07 05:41:48;;;;;;;56.43;25.70;;;;;;;13.81;nan;96975.66;3507815;40;20525;-71
2021/06/07 05:44:17;;;;;;;60.70;27.53;;;;;;;13.76;nan;96981.28;3508163;40;20919;-70
2021/06/07 05:46:47;;;;;;;63.90;26.53;;;;;;;13.84;nan;96988.63;3507839;40;20697;-71
2021/06/07 05:49:14;;;;;;;53.50;26.37;;;;;;;13.80;nan;96992.44;3506878;40;20557;-69
2021/06/07 05:51:42;;;;;;;55.10;26.80;;;;;;;13.88;nan;96994.47;3507544;40;20465;-69
2021/06/07 05:54:10;;;;;;;57.53;28.13;;;;;;;13.76;nan;96986.56;3506977;40;20996;-69
2021/06/07 05:56:37;;;;;;;48.80;24.73;;;;;;;13.99;nan;97002.38;3508175;40;20538;-71
2021/06/07 05:59:04;;;;;;;50.20;25.30;;;;;;;13.90;nan;96995.19;3507969;40;20466;-70
2021/06/07 06:01:33;;;;;;;47.77;22.80;;;;;;;13.99;nan;97011.13;3507738;40;20457;-70
2021/06/07 06:04:02;;;;;;;56.03;25.50;;;;;;;13.71;nan;97004.47;3508435;40;20478;-69
2021/06/07 06:06:31;;;;;;;47.10;23.67;;;;;;;13.80;nan;97013.50;3506602;40;20583;-71
2021/06/07 06:08:59;;;;;;;46.67;24.27;;;;;;;13.95;nan;97007.03;3508119;40;20477;-70
2021/06/07 06:11:26;;;;;;;46.57;22.17;;;;;;;13.95;nan;97008.84;3508192;40;20458;-69
2021/06/07 06:14:02;;;;;;;51.57;26.73;;;;;;;14.01;nan;97009.25;3506969;40;21123;-70
2021/06/07 06:16:30;;;;;;;49.03;23.37;;;;;;;14.09;nan;97010.44;3498744;40;20922;-69
2021/06/07 06:18:59;;;;;;;45.80;24.43;;;;;;;14.03;nan;97007.31;3506158;40;21117;-68
2021/06/07 06:21:27;;;;;;;57.27;25.33;;;;;;;13.92;nan;97012.56;3508247;40;20745;-69
2021/06/07 06:23:56;;;;;;;64.27;25.13;;;;;;;13.91;nan;97016.13;3504457;40;20465;-69
2021/06/07 06:26:24;;;;;;;57.13;23.57;;;;;;;13.79;nan;97014.44;3498844;40;20471;-70
2021/06/07 06:28:52;;;;;;;67.43;24.03;;;;;;;14.00;nan;97018.06;3505799;40;20478;-69
2021/06/07 06:31:19;;;;;;;41.33;22.73;;;;;;;13.91;nan;97021.41;3507665;40;20454;-71
2021/06/07 06:33:49;;;;;;;50.10;24.67;;;;;;;13.75;nan;97018.25;3507121;40;20478;-68
2021/06/07 06:36:18;;;;;;;42.17;21.70;;;;;;;13.96;nan;97015.81;3506871;40;20950;-71
2021/06/07 06:38:45;;;;;;;67.53;22.00;;;;;;;13.84;nan;97023.66;3507257;40;20859;-70
2021/06/07 06:41:13;;;;;;;44.63;20.03;;;;;;;13.86;nan;96999.88;3510283;40;20470;-71
2021/06/07 06:43:41;;;;;;;39.07;20.20;;;;;;;14.04;nan;97023.97;3507919;40;20471;-71
2021/06/07 06:46:09;;;;;;;33.93;18.60;;;;;;;14.09;nan;97027.06;3509293;40;20784;-70
2021/06/07 06:48:36;;;;;;;41.10;17.70;;;;;;;14.01;nan;97022.41;3507512;40;20483;-72
2021/06/07 06:51:05;;;;;;;31.03;17.77;;;;;;;13.98;nan;97008.63;3507822;40;20662;-70
2021/06/07 06:53:34;;;;;;;26.53;16.10;;;;;;;14.02;nan;97031.13;3507874;40;20545;-72
2021/06/07 06:56:02;;;;;;;29.70;16.13;;;;;;;13.99;nan;97029.53;3507543;40;20454;-69
2021/06/07 06:58:29;;;;;;;25.80;15.83;;;;;;;14.11;nan;97026.94;3507670;40;20784;-73
2021/06/07 07:00:57;;;;;;;22.17;15.43;;;;;;;14.16;nan;97030.91;3499227;40;20855;-70
2021/06/07 07:03:24;;;;;;;24.00;14.67;;;;;;;14.18;nan;97033.44;3508059;40;20806;-69
2021/06/07 07:05:53;;;;;;;30.23;14.43;;;;;;;14.22;nan;97030.44;3507285;40;20840;-70
2021/06/07 07:08:21;;;;;;;19.70;13.27;;;;;;;14.33;nan;97021.72;3507409;40;20687;-71
2021/06/07 07:10:50;;;;;;;22.77;12.97;;;;;;;14.42;nan;97028.91;3507505;40;20770;-69
2021/06/07 07:13:18;;;;;;;33.87;12.93;;;;;;;14.56;nan;97030.50;3506386;40;20698;-70
2021/06/07 07:15:45;;;;;;;21.73;13.27;;;;;;;14.51;nan;97031.78;3506990;40;20466;-71
2021/06/07 07:18:13;;;;;;;20.57;12.20;;;;;;;14.32;nan;97030.56;3507618;40;20943;-70
2021/06/07 07:20:42;;;;;;;20.60;12.90;;;;;;;14.31;nan;97028.91;3498316;40;20777;-71
2021/06/07 07:23:09;;;;;;;19.37;11.77;;;;;;;14.36;nan;97034.63;3507529;40;20447;-70
2021/06/07 07:25:38;;;;;;;22.67;11.50;;;;;;;14.23;nan;97037.41;3497730;40;20782;-71
2021/06/07 07:28:08;;;;;;;22.00;11.27;;;;;;;14.10;nan;97035.81;3506885;40;20919;-70
2021/06/07 07:30:38;;;;;;;16.57;10.43;;;;;;;14.30;nan;97043.03;3505720;40;20926;-68
2021/06/07 07:33:09;;;;;;;17.50;11.80;;;;;;;14.33;nan;97047.22;3499143;40;20459;-69
2021/06/07 07:35:37;;;;;;;18.30;10.17;;;;;;;14.42;nan;97043.88;3507713;40;20792;-71
2021/06/07 07:38:04;;;;;;;15.00;9.50;;;;;;;14.38;nan;97050.34;3507506;40;20693;-71
2021/06/07 07:40:41;;;;;;;24.23;9.80;;;;;;;14.31;nan;97044.72;3506735;40;20801;-69
2021/06/07 07:43:10;;;;;;;14.63;9.77;;;;;;;14.40;nan;97041.34;3498321;40;20864;-70
2021/06/07 07:45:39;;;;;;;16.00;9.57;;;;;;;14.49;nan;97039.00;3508375;40;20582;-71
2021/06/07 07:48:08;;;;;;;17.57;9.50;;;;;;;14.66;nan;97030.59;3507786;40;20772;-70
2021/06/07 07:50:37;;;;;;;14.53;8.90;;;;;;;14.69;nan;97045.38;3507744;40;20471;-70
2021/06/07 07:53:04;;;;;;;17.33;9.40;;;;;;;14.74;nan;97046.69;3508344;40;20459;-72
2021/06/07 07:55:33;;;;;;;17.13;9.07;;;;;;;14.67;nan;97040.19;3505687;40;20479;-69
2021/06/07 07:58:04;;;;;;;13.03;7.67;;;;;;;14.72;nan;97042.47;3508722;40;20812;-70
2021/06/07 08:00:34;;;;;;;11.67;7.70;;;;;;;14.74;nan;97038.78;3505770;40;20856;-71
2021/06/07 08:03:02;;;;;;;15.07;9.30;;;;;;;14.87;nan;97041.25;3507819;40;20459;-71
2021/06/07 08:05:30;;;;;;;16.20;8.60;;;;;;;15.13;nan;97041.84;3498025;40;20744;-71
2021/06/07 08:07:58;;;;;;;11.50;8.13;;;;;;;15.38;nan;97040.69;3499389;40;20559;-70
2021/06/07 08:10:26;;;;;;;13.40;8.23;;;;;;;15.37;nan;97035.56;3507877;40;20666;-70
2021/06/07 08:12:54;;;;;;;9.37;7.23;;;;;;;15.56;nan;97037.50;3507711;40;20796;-69
2021/06/07 08:15:21;;;;;;;11.30;7.20;;;;;;;15.14;nan;97035.59;3507216;40;20463;-70
2021/06/07 08:17:50;;;;;;;10.70;7.10;;;;;;;15.27;nan;97037.22;3509315;40;20810;-69
2021/06/07 08:20:19;;;;;;;10.73;6.50;;;;;;;14.99;nan;97028.91;3507775;40;20451;-72
2021/06/07 08:22:50;;;;;;;10.50;6.07;;;;;;;15.19;nan;97036.06;3507793;40;20469;-70
2021/06/07 08:25:18;;;;;;;10.77;7.20;;;;;;;15.20;nan;97040.38;3508559;40;20467;-72
2021/06/07 08:27:46;;;;;;;12.53;7.27;;;;;;;15.36;nan;97047.06;3499699;40;20481;-69
2021/06/07 08:30:14;;;;;;;13.93;6.93;;;;;;;15.49;nan;97041.63;3507714;40;20962;-70
2021/06/07 08:32:42;;;;;;;12.80;7.80;;;;;;;15.48;nan;97045.22;3508956;40;20912;-70
2021/06/07 08:35:12;;;;;;;13.43;7.63;;;;;;;15.61;nan;97045.91;3508348;40;20557;-70
2021/06/07 08:37:39;;;;;;;11.23;6.93;;;;;;;15.37;nan;97025.81;3507604;40;20915;-72
2021/06/07 08:40:10;;;;;;;12.70;7.60;;;;;;;15.41;nan;97043.09;3506901;40;20708;-70
2021/06/07 08:42:40;;;;;;;12.47;7.70;;;;;;;15.35;nan;97035.66;3497792;40;20965;-71
2021/06/07 08:45:14;;;;;;;15.30;7.80;;;;;;;15.35;nan;97040.13;3505535;40;20569;-72
2021/06/07 08:47:42;;;;;;;15.80;8.37;;;;;;;15.56;nan;97043.66;3507505;40;20463;-71
2021/06/07 08:50:13;;;;;;;12.37;8.10;;;;;;;15.47;nan;97043.56;3497471;40;20932;-70
2021/06/07 08:52:43;;;;;;;11.80;8.00;;;;;;;15.49;nan;97047.72;3507153;40;20436;-72
2021/06/07 08:55:12;;;;;;;13.50;7.27;;;;;;;15.47;nan;97047.03;3506368;40;20611;-71
2021/06/07 08:57:42;;;;;;;12.70;8.13;;;;;;;15.56;nan;97054.19;3506984;40;20930;-71
2021/06/07 09:00:12;;;;;;;12.27;7.53;;;;;;;15.53;nan;97048.31;3506362;40;20478;-72
2021/06/07 09:02:43;;;;;;;14.20;8.70;;;;;;;15.46;nan;97055.88;3506641;40;20713;-72
2021/06/07 09:05:13;;;;;;;13.20;7.60;;;;;;;15.09;nan;97050.09;3505739;40;20459;-71
2021/06/07 09:07:56;;;;;;;13.00;7.60;;;;;;;15.38;nan;97056.50;3505778;40;21214;-71
2021/06/07 09:10:25;;;;;;;13.20;8.60;;;;;;;15.46;nan;97053.25;3505743;40;20567;-70
2021/06/07 09:12:56;;;;;;;13.80;8.33;;;;;;;15.34;nan;97049.81;3497932;40;20476;-69
2021/06/07 09:15:25;;;;;;;13.87;8.90;;;;;;;15.30;nan;97055.47;3506510;40;20455;-70
2021/06/07 09:17:53;;;;;;;13.97;7.77;;;;;;;15.23;nan;97050.69;3508278;40;20710;-70
2021/06/07 09:20:23;;;;;;;12.43;8.27;;;;;;;15.30;nan;97053.66;3507247;40;20479;-70
2021/06/07 09:22:52;;;;;;;12.20;8.57;;;;;;;15.25;nan;97058.50;3507741;40;20443;-71
2021/06/07 09:25:23;;;;;;;21.07;8.70;;;;;;;15.25;nan;97055.00;3497977;40;20459;-72
2021/06/07 09:28:09;;;;;;;12.53;7.07;;;;;;;15.22;nan;97049.00;3507324;40;20772;-71
2021/06/07 09:30:40;;;;;;;14.53;8.67;;;;;;;15.36;nan;97047.06;3508402;40;20954;-72
2021/06/07 09:33:20;;;;;;;25.80;13.70;;;;;;;15.29;nan;97057.28;3505899;40;20954;-71
2021/06/07 09:36:14;;;;;;;17.40;9.63;;;;;;;15.27;nan;97053.06;3506521;40;20494;-71
2021/06/07 09:39:09;;;;;;;15.57;8.33;;;;;;;15.61;nan;97057.28;3505826;40;20465;-71
2021/06/07 09:41:53;;;;;;;19.00;10.10;;;;;;;16.01;nan;97054.03;3506251;40;20459;-70
2021/06/07 09:44:25;;;;;;;16.87;9.90;;;;;;;16.07;nan;97055.28;3505086;40;20475;-71
2021/06/07 09:47:06;;;;;;;20.50;10.57;;;;;;;16.31;nan;97056.88;3507546;40;20459;-70
2021/06/07 09:49:39;;;;;;;15.73;8.73;;;;;;;16.40;nan;97062.19;3504392;40;20893;-71
2021/06/07 09:52:13;;;;;;;15.60;9.10;;;;;;;16.39;nan;97062.34;3506760;40;20467;-72
2021/06/07 09:54:41;;;;;;;16.23;10.73;;;;;;;15.98;nan;97064.00;3507219;40;20471;-70
2021/06/07 09:57:09;;;;;;;15.23;8.43;;;;;;;16.32;nan;97059.34;3507105;40;20978;-71
2021/06/07 09:59:38;;;;;;;11.77;8.37;;;;;;;16.33;nan;97039.91;3507225;40;20497;-69
2021/06/07 10:02:15;;;;;;;14.13;8.57;;;;;;;16.59;nan;97052.69;3507050;40;20502;-71
2021/06/07 10:04:51;;;;;;;17.10;10.43;;;;;;;16.33;nan;97061.03;3505795;40;21190;-71
2021/06/07 10:07:21;;;;;;;18.10;10.47;;;;;;;16.06;nan;97055.44;3497118;40;20900;-70
2021/06/07 10:10:18;;;;;;;14.00;8.97;;;;;;;16.28;nan;97059.75;3506503;40;20836;-71
2021/06/07 10:12:47;;;;;;;15.20;11.40;;;;;;;16.74;nan;97054.00;3506496;40;20824;-72
2021/06/07 10:15:30;;;;;;;22.33;12.27;;;;;;;16.49;nan;97046.53;3505678;40;20747;-71
2021/06/07 10:17:57;;;;;;;17.60;11.00;;;;;;;16.61;nan;97050.75;3505777;40;20505;-70
2021/06/07 10:23:12;;;;;;;20.57;10.60;;;;;;;16.44;nan;97059.28;3506040;40;20816;-71
2021/06/07 10:25:39;;;;;;;13.53;9.03;;;;;;;16.43;nan;97058.47;3498417;40;20554;-71
2021/06/07 10:28:07;;;;;;;16.43;9.60;;;;;;;16.94;nan;97051.47;3507534;40;20926;-70
2021/06/07 10:30:40;;;;;;;13.07;8.77;;;;;;;17.09;nan;97051.94;3508062;40;20842;-70
2021/06/07 10:33:25;;;;;;;14.13;8.40;;;;;;;17.05;nan;97053.16;3507725;40;20798;-70
2021/06/07 10:35:53;;;;;;;13.03;9.23;;;;;;;17.31;nan;97048.22;3508873;40;20837;-72
2021/06/07 10:38:31;;;;;;;17.00;9.00;;;;;;;17.02;nan;97051.63;3507603;40;20851;-71
2021/06/07 10:41:20;;;;;;;13.50;9.20;;;;;;;17.19;nan;97053.63;3508425;40;20502;-72
2021/06/07 10:43:49;;;;;;;14.87;10.50;;;;;;;17.03;nan;97053.28;3508456;40;20568;-71
2021/06/07 10:46:25;;;;;;;15.23;9.03;;;;;;;17.11;nan;97057.91;3509201;40;20558;-71
2021/06/07 10:48:53;;;;;;;14.30;8.13;;;;;;;16.80;nan;97055.28;3508089;40;20493;-70
2021/06/07 10:51:23;;;;;;;22.67;9.83;;;;;;;16.77;nan;97056.38;3507646;40;20792;-70
2021/06/07 10:53:53;;;;;;;17.80;10.80;;;;;;;17.20;nan;97057.94;3508278;40;20570;-73
2021/06/07 10:56:26;;;;;;;25.27;13.57;;;;;;;17.41;nan;97062.31;3507875;40;21017;-72
2021/06/07 10:58:56;;;;;;;14.40;8.93;;;;;;;17.58;nan;97052.84;3498958;40;20693;-72
2021/06/07 11:01:44;;;;;;;17.03;9.60;;;;;;;17.62;nan;97058.72;3499585;40;20860;-71
2021/06/07 11:04:33;;;;;;;12.70;8.87;;;;;;;17.37;nan;97061.75;3508199;40;20469;-71
2021/06/07 11:07:08;;;;;;;12.87;8.90;;;;;;;17.24;nan;97062.97;3506719;40;20572;-72
2021/06/07 11:09:57;;;;;;;15.97;9.70;;;;;;;17.15;nan;97064.59;3507431;40;20564;-70
2021/06/07 11:12:30;;;;;;;16.63;9.80;;;;;;;17.22;nan;97063.09;3507355;40;20502;-71
2021/06/07 11:15:13;;;;;;;16.77;10.13;;;;;;;17.54;nan;97054.97;3505706;40;20463;-68
2021/06/07 11:17:41;;;;;;;14.60;9.87;;;;;;;18.01;nan;97051.63;3507651;40;20698;-71
2021/06/07 11:20:10;;;;;;;12.23;9.90;;;;;;;18.08;nan;97052.75;3506719;40;20573;-72
2021/06/07 11:23:06;;;;;;;14.50;9.90;;;;;;;18.01;nan;97045.50;3507293;40;20503;-70
2021/06/07 11:25:50;;;;;;;13.87;9.50;;;;;;;18.25;nan;97048.53;3506728;40;20754;-71
2021/06/07 11:28:40;;;;;;;20.03;9.53;;;;;;;18.31;nan;97042.66;3509168;40;20474;-73
2021/06/07 11:31:53;;;;;;;12.33;9.07;;;;;;;18.73;nan;97038.75;3508040;40;20481;-70
2021/06/07 11:34:43;;;;;;;15.20;10.47;;;;;;;18.40;nan;97046.25;3509326;40;21148;-72
2021/06/07 11:37:12;;;;;;;16.63;10.57;;;;;;;18.24;nan;97044.19;3507377;40;20481;-71
2021/06/07 11:39:54;;;;;;;18.10;10.73;;;;;;;18.58;nan;97041.03;3507470;40;20508;-70
2021/06/07 11:42:28;;;;;;;15.90;9.57;;;;;;;18.02;nan;97037.41;3506271;40;20493;-72
2021/06/07 11:45:03;;;;;;;17.47;10.10;;;;;;;17.71;nan;97039.34;3506486;40;20496;-70
2021/06/07 11:48:01;;;;;;;13.07;8.17;;;;;;;18.08;nan;97038.66;3507839;40;20898;-72
2021/06/07 11:50:36;;;;;;;12.07;8.70;;;;;;;18.11;nan;97038.34;3476476;41;20976;-72